Saturday, October 20, 2018, 6:39 AM EDT
Back to Local

KSWF, Newburgh / Stewart

Location: New Windsor, NY, United States Lat: 41.5
Local Time: 6:39 AM EDT (10:39 GMT) Lon: -74.1
Time Zone: US/Eastern Elev: 492 ft

Show me the last for .
Show Decoded

2018-10-20 05:45 METAR KSWF 200945Z 23006KT 10SM OVC060 10/10 A2973 =
2018-10-20 04:45 METAR KSWF 200845Z 23006KT 10SM BKN050 OVC060 11/10 A2974 =
2018-10-20 03:45 METAR KSWF 200745Z 23006KT 10SM -DZ FEW045 OVC060 10/09 A2977 =
2018-10-20 02:45 METAR KSWF 200645Z 23006KT 10SM FEW045 OVC060 11/09 A2981 =
2018-10-20 01:45 METAR KSWF 200545Z 23006KT 10SM SKC 11/08 A2984 =
2018-10-20 00:45 METAR KSWF 200445Z 21006KT 10SM SKC 11/07 A2985 =
2018-10-19 23:45 METAR KSWF 200345Z 21006KT 10SM SKC 11/06 A2990 =
2018-10-19 22:45 METAR KSWF 200245Z 21006KT 10SM SKC 11/06 A2992 =
2018-10-19 21:45 METAR KSWF 200145Z 21006KT 10SM SKC 11/05 A2993 RMK PRESFR =
2018-10-19 20:45 METAR KSWF 200045Z 00000KT 10SM SKC 11/03 A2998 =
2018-10-19 19:45 METAR KSWF 192345Z 20004KT 10SM SCT100 11/02 A3001 =
2018-10-19 18:45 METAR KSWF 192245Z 21006KT 10SM SCT100 12/02 A3001 =
2018-10-19 17:45 METAR KSWF 192145Z 24006KT 20SM BKN100 13/01 A3003 =
2018-10-19 16:45 METAR KSWF 192045Z 24006KT 20SM BKN100 14/04 A3004 =
2018-10-19 15:45 METAR KSWF 191945Z 26008KT 20SM BKN100 15/03 A3005 RMK PRESFR =
2018-10-19 14:45 METAR KSWF 191845Z 23010KT 20SM SCT100 15/03 A3010 =
2018-10-19 13:45 METAR KSWF 191745Z 23008KT 20SM SCT100 14/03 A3012 =
2018-10-19 12:45 METAR KSWF 191645Z 27010KT 20SM SCT100 12/04 A3017 =
2018-10-19 11:45 METAR KSWF 191545Z 24010KT 20SM SKC 11/03 A3020 =
2018-10-19 10:45 METAR KSWF 191445Z 24010G15KT 20SM SKC 09/02 A3023 =
2018-10-19 09:45 METAR KSWF 191345Z 24010KT 20SM SKC 06/01 A3025 =
2018-10-19 08:45 METAR KSWF 191245Z 27005KT 10SM SKC 05/00 A3027 =
2018-10-19 07:45 METAR KSWF 191145Z 28005KT 10SM SKC 02/00 A3028 =
2018-10-19 06:45 METAR KSWF 191045Z 28005KT 10SM SKC 01/M01 A3028 =

Support USWX by starting your Amazon purchase here.